sensor_id;sensor_type;location;lat;lon;timestamp;P1;durP1;ratioP1;P2;durP2;ratioP2
7843;SDS011;3967;48.702;9.326;2023-05-16T00:01:50;5.20;;;4.70;;
7843;SDS011;3967;48.702;9.326;2023-05-16T00:04:17;5.30;;;4.80;;
7843;SDS011;3967;48.702;9.326;2023-05-16T00:06:48;4.77;;;4.37;;
7843;SDS011;3967;48.702;9.326;2023-05-16T00:09:14;6.40;;;4.80;;
7843;SDS011;3967;48.702;9.326;2023-05-16T00:11:44;5.40;;;4.90;;
7843;SDS011;3967;48.702;9.326;2023-05-16T00:14:12;6.47;;;5.90;;
7843;SDS011;3967;48.702;9.326;2023-05-16T00:16:40;7.80;;;7.00;;
7843;SDS011;3967;48.702;9.326;2023-05-16T00:19:07;7.10;;;6.43;;
7843;SDS011;3967;48.702;9.326;2023-05-16T00:21:34;8.17;;;7.37;;
7843;SDS011;3967;48.702;9.326;2023-05-16T00:24:01;7.80;;;7.10;;
7843;SDS011;3967;48.702;9.326;2023-05-16T00:26:29;6.57;;;5.97;;
7843;SDS011;3967;48.702;9.326;2023-05-16T00:28:55;6.73;;;6.13;;
7843;SDS011;3967;48.702;9.326;2023-05-16T00:31:24;6.83;;;6.23;;
7843;SDS011;3967;48.702;9.326;2023-05-16T00:33:51;7.67;;;6.97;;
7843;SDS011;3967;48.702;9.326;2023-05-16T00:36:17;7.10;;;6.40;;
7843;SDS011;3967;48.702;9.326;2023-05-16T00:38:46;7.60;;;6.90;;
7843;SDS011;3967;48.702;9.326;2023-05-16T00:41:13;6.67;;;6.07;;
7843;SDS011;3967;48.702;9.326;2023-05-16T00:43:40;6.97;;;6.17;;
7843;SDS011;3967;48.702;9.326;2023-05-16T00:46:06;7.40;;;6.70;;
7843;SDS011;3967;48.702;9.326;2023-05-16T00:48:33;7.47;;;6.70;;
7843;SDS011;3967;48.702;9.326;2023-05-16T00:51:00;7.60;;;6.90;;
7843;SDS011;3967;48.702;9.326;2023-05-16T00:53:27;6.77;;;6.07;;
7843;SDS011;3967;48.702;9.326;2023-05-16T00:55:55;7.77;;;7.07;;
7843;SDS011;3967;48.702;9.326;2023-05-16T00:58:22;5.97;;;5.40;;
7843;SDS011;3967;48.702;9.326;2023-05-16T01:00:49;7.53;;;6.83;;
7843;SDS011;3967;48.702;9.326;2023-05-16T01:03:16;6.13;;;5.63;;
7843;SDS011;3967;48.702;9.326;2023-05-16T01:05:43;6.90;;;5.83;;
7843;SDS011;3967;48.702;9.326;2023-05-16T01:08:11;6.20;;;5.70;;
7843;SDS011;3967;48.702;9.326;2023-05-16T01:10:39;6.40;;;5.80;;
7843;SDS011;3967;48.702;9.326;2023-05-16T01:16:30;7.93;;;7.13;;
7843;SDS011;3967;48.702;9.326;2023-05-16T01:21:48;7.27;;;6.20;;
7843;SDS011;3967;48.702;9.326;2023-05-16T01:24:43;9.13;;;7.10;;
7843;SDS011;3967;48.702;9.326;2023-05-16T01:27:25;7.47;;;6.77;;
7843;SDS011;3967;48.702;9.326;2023-05-16T01:29:56;6.93;;;6.33;;
7843;SDS011;3967;48.702;9.326;2023-05-16T01:32:22;7.90;;;6.87;;
7843;SDS011;3967;48.702;9.326;2023-05-16T01:34:49;8.60;;;7.17;;
7843;SDS011;3967;48.702;9.326;2023-05-16T01:37:23;7.80;;;7.10;;
7843;SDS011;3967;48.702;9.326;2023-05-16T01:40:01;10.17;;;7.70;;
7843;SDS011;3967;48.702;9.326;2023-05-16T01:42:36;8.83;;;7.70;;
7843;SDS011;3967;48.702;9.326;2023-05-16T01:45:09;8.17;;;7.43;;
7843;SDS011;3967;48.702;9.326;2023-05-16T01:47:46;7.27;;;6.67;;
7843;SDS011;3967;48.702;9.326;2023-05-16T01:50:18;6.37;;;5.87;;
7843;SDS011;3967;48.702;9.326;2023-05-16T01:52:49;8.70;;;6.70;;
7843;SDS011;3967;48.702;9.326;2023-05-16T01:55:31;7.83;;;7.13;;
7843;SDS011;3967;48.702;9.326;2023-05-16T01:58:11;6.73;;;6.23;;
7843;SDS011;3967;48.702;9.326;2023-05-16T02:00:40;8.97;;;7.83;;
7843;SDS011;3967;48.702;9.326;2023-05-16T02:03:07;9.77;;;7.03;;
7843;SDS011;3967;48.702;9.326;2023-05-16T02:05:34;7.67;;;6.97;;
7843;SDS011;3967;48.702;9.326;2023-05-16T02:08:01;9.53;;;8.63;;
7843;SDS011;3967;48.702;9.326;2023-05-16T02:10:28;8.43;;;7.23;;
7843;SDS011;3967;48.702;9.326;2023-05-16T02:12:56;8.80;;;8.00;;
7843;SDS011;3967;48.702;9.326;2023-05-16T02:15:23;9.00;;;8.10;;
7843;SDS011;3967;48.702;9.326;2023-05-16T02:17:50;9.03;;;7.67;;
7843;SDS011;3967;48.702;9.326;2023-05-16T02:20:17;7.93;;;7.23;;
7843;SDS011;3967;48.702;9.326;2023-05-16T02:22:43;7.63;;;6.93;;
7843;SDS011;3967;48.702;9.326;2023-05-16T02:25:13;6.50;;;6.00;;
7843;SDS011;3967;48.702;9.326;2023-05-16T02:27:41;8.07;;;7.37;;
7843;SDS011;3967;48.702;9.326;2023-05-16T02:30:11;7.50;;;6.83;;
7843;SDS011;3967;48.702;9.326;2023-05-16T02:32:38;6.93;;;6.23;;
7843;SDS011;3967;48.702;9.326;2023-05-16T02:35:06;7.13;;;6.50;;
7843;SDS011;3967;48.702;9.326;2023-05-16T02:37:33;6.97;;;6.33;;
7843;SDS011;3967;48.702;9.326;2023-05-16T02:40:00;6.70;;;6.10;;
7843;SDS011;3967;48.702;9.326;2023-05-16T02:42:29;7.57;;;6.87;;
7843;SDS011;3967;48.702;9.326;2023-05-16T02:44:57;7.63;;;6.77;;
7843;SDS011;3967;48.702;9.326;2023-05-16T02:47:26;8.20;;;7.50;;
7843;SDS011;3967;48.702;9.326;2023-05-16T02:49:54;8.80;;;8.00;;
7843;SDS011;3967;48.702;9.326;2023-05-16T02:52:21;8.33;;;7.43;;
7843;SDS011;3967;48.702;9.326;2023-05-16T02:54:48;7.93;;;7.23;;
7843;SDS011;3967;48.702;9.326;2023-05-16T02:57:34;7.67;;;6.97;;
7843;SDS011;3967;48.702;9.326;2023-05-16T03:00:01;7.47;;;6.77;;
7843;SDS011;3967;48.702;9.326;2023-05-16T03:02:31;7.90;;;7.20;;
7843;SDS011;3967;48.702;9.326;2023-05-16T03:04:58;8.20;;;7.40;;
7843;SDS011;3967;48.702;9.326;2023-05-16T03:07:24;7.57;;;6.97;;
7843;SDS011;3967;48.702;9.326;2023-05-16T03:09:51;8.03;;;7.23;;
7843;SDS011;3967;48.702;9.326;2023-05-16T03:12:18;8.70;;;7.90;;
7843;SDS011;3967;48.702;9.326;2023-05-16T03:14:44;9.03;;;6.80;;
7843;SDS011;3967;48.702;9.326;2023-05-16T03:17:11;8.90;;;8.00;;
7843;SDS011;3967;48.702;9.326;2023-05-16T03:19:38;7.00;;;6.20;;
7843;SDS011;3967;48.702;9.326;2023-05-16T03:22:05;8.00;;;7.23;;
7843;SDS011;3967;48.702;9.326;2023-05-16T03:24:31;8.93;;;8.03;;
7843;SDS011;3967;48.702;9.326;2023-05-16T03:26:58;9.63;;;8.63;;
7843;SDS011;3967;48.702;9.326;2023-05-16T03:29:25;9.30;;;8.50;;
7843;SDS011;3967;48.702;9.326;2023-05-16T03:31:52;9.40;;;8.43;;
7843;SDS011;3967;48.702;9.326;2023-05-16T03:34:19;8.47;;;7.70;;
7843;SDS011;3967;48.702;9.326;2023-05-16T03:36:49;9.30;;;8.27;;
7843;SDS011;3967;48.702;9.326;2023-05-16T03:39:16;9.00;;;8.13;;
7843;SDS011;3967;48.702;9.326;2023-05-16T03:41:43;9.03;;;8.10;;
7843;SDS011;3967;48.702;9.326;2023-05-16T03:44:10;8.73;;;7.87;;
7843;SDS011;3967;48.702;9.326;2023-05-16T03:46:39;7.60;;;6.87;;
7843;SDS011;3967;48.702;9.326;2023-05-16T03:49:06;9.07;;;8.20;;
7843;SDS011;3967;48.702;9.326;2023-05-16T03:51:33;9.33;;;8.43;;
7843;SDS011;3967;48.702;9.326;2023-05-16T03:53:59;7.80;;;6.97;;
7843;SDS011;3967;48.702;9.326;2023-05-16T03:56:26;8.97;;;8.07;;
7843;SDS011;3967;48.702;9.326;2023-05-16T03:58:53;8.67;;;7.53;;
7843;SDS011;3967;48.702;9.326;2023-05-16T04:01:20;8.80;;;7.90;;
7843;SDS011;3967;48.702;9.326;2023-05-16T04:03:47;9.23;;;8.43;;
7843;SDS011;3967;48.702;9.326;2023-05-16T04:06:15;9.70;;;8.60;;
7843;SDS011;3967;48.702;9.326;2023-05-16T04:08:43;9.07;;;7.87;;
7843;SDS011;3967;48.702;9.326;2023-05-16T04:11:10;10.67;;;8.90;;
7843;SDS011;3967;48.702;9.326;2023-05-16T04:13:36;9.37;;;8.00;;
7843;SDS011;3967;48.702;9.326;2023-05-16T04:16:03;8.93;;;8.03;;
7843;SDS011;3967;48.702;9.326;2023-05-16T04:18:31;10.50;;;8.97;;
7843;SDS011;3967;48.702;9.326;2023-05-16T04:20:57;11.27;;;8.80;;
7843;SDS011;3967;48.702;9.326;2023-05-16T04:23:24;10.60;;;9.50;;
7843;SDS011;3967;48.702;9.326;2023-05-16T04:25:51;13.23;;;10.47;;
7843;SDS011;3967;48.702;9.326;2023-05-16T04:28:18;13.53;;;10.83;;
7843;SDS011;3967;48.702;9.326;2023-05-16T04:30:44;14.60;;;12.37;;
7843;SDS011;3967;48.702;9.326;2023-05-16T04:33:11;17.00;;;12.87;;
7843;SDS011;3967;48.702;9.326;2023-05-16T04:35:38;12.90;;;11.03;;
7843;SDS011;3967;48.702;9.326;2023-05-16T04:38:05;15.90;;;13.47;;
7843;SDS011;3967;48.702;9.326;2023-05-16T04:40:31;18.63;;;14.47;;
7843;SDS011;3967;48.702;9.326;2023-05-16T04:42:58;15.40;;;13.57;;
7843;SDS011;3967;48.702;9.326;2023-05-16T04:45:25;20.80;;;15.83;;
7843;SDS011;3967;48.702;9.326;2023-05-16T04:47:52;26.10;;;19.27;;
7843;SDS011;3967;48.702;9.326;2023-05-16T04:50:19;36.27;;;25.10;;
7843;SDS011;3967;48.702;9.326;2023-05-16T04:52:46;38.77;;;28.00;;
7843;SDS011;3967;48.702;9.326;2023-05-16T04:55:12;41.20;;;29.63;;
7843;SDS011;3967;48.702;9.326;2023-05-16T04:57:39;42.87;;;28.27;;
7843;SDS011;3967;48.702;9.326;2023-05-16T05:00:06;39.47;;;27.50;;
7843;SDS011;3967;48.702;9.326;2023-05-16T05:02:35;38.13;;;26.63;;
7843;SDS011;3967;48.702;9.326;2023-05-16T05:05:02;47.73;;;31.87;;
7843;SDS011;3967;48.702;9.326;2023-05-16T05:07:31;45.10;;;31.30;;
7843;SDS011;3967;48.702;9.326;2023-05-16T05:09:58;43.97;;;29.90;;
7843;SDS011;3967;48.702;9.326;2023-05-16T05:12:25;38.93;;;28.00;;
7843;SDS011;3967;48.702;9.326;2023-05-16T05:14:53;42.07;;;28.90;;
7843;SDS011;3967;48.702;9.326;2023-05-16T05:17:20;41.90;;;29.03;;
7843;SDS011;3967;48.702;9.326;2023-05-16T05:19:48;43.33;;;29.70;;
7843;SDS011;3967;48.702;9.326;2023-05-16T05:22:14;52.50;;;33.33;;
7843;SDS011;3967;48.702;9.326;2023-05-16T05:24:41;52.77;;;33.43;;
7843;SDS011;3967;48.702;9.326;2023-05-16T05:27:08;47.10;;;31.87;;
7843;SDS011;3967;48.702;9.326;2023-05-16T05:29:35;45.33;;;30.10;;
7843;SDS011;3967;48.702;9.326;2023-05-16T05:32:01;48.27;;;31.93;;
7843;SDS011;3967;48.702;9.326;2023-05-16T05:34:28;49.70;;;32.30;;
7843;SDS011;3967;48.702;9.326;2023-05-16T05:36:55;44.40;;;30.63;;
7843;SDS011;3967;48.702;9.326;2023-05-16T05:39:23;42.60;;;29.00;;
7843;SDS011;3967;48.702;9.326;2023-05-16T05:41:49;48.60;;;30.77;;
7843;SDS011;3967;48.702;9.326;2023-05-16T05:44:18;48.90;;;30.93;;
7843;SDS011;3967;48.702;9.326;2023-05-16T05:46:46;45.97;;;31.07;;
7843;SDS011;3967;48.702;9.326;2023-05-16T05:49:13;47.37;;;30.73;;
7843;SDS011;3967;48.702;9.326;2023-05-16T05:51:39;43.83;;;30.47;;
7843;SDS011;3967;48.702;9.326;2023-05-16T05:54:06;47.53;;;31.23;;
7843;SDS011;3967;48.702;9.326;2023-05-16T05:56:33;42.93;;;29.47;;
7843;SDS011;3967;48.702;9.326;2023-05-16T05:59:00;43.33;;;31.13;;
7843;SDS011;3967;48.702;9.326;2023-05-16T06:01:27;46.77;;;31.43;;
7843;SDS011;3967;48.702;9.326;2023-05-16T06:03:53;43.93;;;30.97;;
7843;SDS011;3967;48.702;9.326;2023-05-16T06:06:21;47.27;;;32.40;;
7843;SDS011;3967;48.702;9.326;2023-05-16T06:08:49;47.13;;;31.97;;
7843;SDS011;3967;48.702;9.326;2023-05-16T06:11:17;42.80;;;30.10;;
7843;SDS011;3967;48.702;9.326;2023-05-16T06:13:44;44.40;;;30.90;;
7843;SDS011;3967;48.702;9.326;2023-05-16T06:16:10;47.27;;;30.73;;
7843;SDS011;3967;48.702;9.326;2023-05-16T06:18:37;42.20;;;31.20;;
7843;SDS011;3967;48.702;9.326;2023-05-16T06:21:04;41.53;;;28.73;;
7843;SDS011;3967;48.702;9.326;2023-05-16T06:23:32;42.60;;;29.63;;
7843;SDS011;3967;48.702;9.326;2023-05-16T06:25:59;38.77;;;27.27;;
7843;SDS011;3967;48.702;9.326;2023-05-16T06:28:25;43.37;;;28.47;;
7843;SDS011;3967;48.702;9.326;2023-05-16T06:30:52;41.00;;;28.67;;
7843;SDS011;3967;48.702;9.326;2023-05-16T06:33:19;40.73;;;29.27;;
7843;SDS011;3967;48.702;9.326;2023-05-16T06:35:46;43.50;;;28.87;;
7843;SDS011;3967;48.702;9.326;2023-05-16T06:38:14;36.37;;;26.17;;
7843;SDS011;3967;48.702;9.326;2023-05-16T06:40:41;34.43;;;25.23;;
7843;SDS011;3967;48.702;9.326;2023-05-16T06:43:08;39.73;;;26.53;;
7843;SDS011;3967;48.702;9.326;2023-05-16T06:45:35;33.13;;;24.43;;
7843;SDS011;3967;48.702;9.326;2023-05-16T06:48:02;32.53;;;24.47;;
7843;SDS011;3967;48.702;9.326;2023-05-16T06:50:29;32.27;;;23.97;;
7843;SDS011;3967;48.702;9.326;2023-05-16T06:52:56;33.37;;;24.10;;
7843;SDS011;3967;48.702;9.326;2023-05-16T06:55:23;27.33;;;21.83;;
7843;SDS011;3967;48.702;9.326;2023-05-16T06:57:50;28.97;;;22.10;;
7843;SDS011;3967;48.702;9.326;2023-05-16T07:00:17;29.77;;;21.97;;
7843;SDS011;3967;48.702;9.326;2023-05-16T07:02:44;27.90;;;21.10;;
7843;SDS011;3967;48.702;9.326;2023-05-16T07:05:11;25.77;;;19.77;;
7843;SDS011;3967;48.702;9.326;2023-05-16T07:07:41;24.37;;;19.83;;
7843;SDS011;3967;48.702;9.326;2023-05-16T07:10:08;30.13;;;20.47;;
7843;SDS011;3967;48.702;9.326;2023-05-16T07:12:35;24.37;;;19.40;;
7843;SDS011;3967;48.702;9.326;2023-05-16T07:15:04;24.23;;;19.53;;
7843;SDS011;3967;48.702;9.326;2023-05-16T07:17:32;24.53;;;19.90;;
7843;SDS011;3967;48.702;9.326;2023-05-16T07:19:59;25.70;;;19.53;;
7843;SDS011;3967;48.702;9.326;2023-05-16T07:22:30;26.73;;;19.57;;
7843;SDS011;3967;48.702;9.326;2023-05-16T07:24:57;26.30;;;18.27;;
7843;SDS011;3967;48.702;9.326;2023-05-16T07:27:26;24.30;;;18.00;;
7843;SDS011;3967;48.702;9.326;2023-05-16T07:29:53;21.43;;;17.00;;
7843;SDS011;3967;48.702;9.326;2023-05-16T07:32:20;21.53;;;17.83;;
7843;SDS011;3967;48.702;9.326;2023-05-16T07:34:47;24.30;;;17.97;;
7843;SDS011;3967;48.702;9.326;2023-05-16T07:37:14;22.73;;;17.90;;
7843;SDS011;3967;48.702;9.326;2023-05-16T07:39:41;22.07;;;18.03;;
7843;SDS011;3967;48.702;9.326;2023-05-16T07:42:08;24.20;;;17.67;;
7843;SDS011;3967;48.702;9.326;2023-05-16T07:44:35;20.03;;;16.87;;
7843;SDS011;3967;48.702;9.326;2023-05-16T07:47:01;24.93;;;16.73;;
7843;SDS011;3967;48.702;9.326;2023-05-16T07:49:28;21.00;;;17.27;;
7843;SDS011;3967;48.702;9.326;2023-05-16T07:51:55;20.30;;;16.83;;
7843;SDS011;3967;48.702;9.326;2023-05-16T07:54:22;19.90;;;15.67;;
7843;SDS011;3967;48.702;9.326;2023-05-16T07:56:49;19.60;;;16.37;;
7843;SDS011;3967;48.702;9.326;2023-05-16T07:59:16;22.70;;;18.03;;
7843;SDS011;3967;48.702;9.326;2023-05-16T08:01:43;21.93;;;18.30;;
7843;SDS011;3967;48.702;9.326;2023-05-16T08:04:10;22.03;;;18.50;;
7843;SDS011;3967;48.702;9.326;2023-05-16T08:06:36;22.70;;;17.93;;
7843;SDS011;3967;48.702;9.326;2023-05-16T08:09:03;22.50;;;16.80;;
7843;SDS011;3967;48.702;9.326;2023-05-16T08:11:30;20.43;;;16.67;;
7843;SDS011;3967;48.702;9.326;2023-05-16T08:13:57;18.93;;;16.47;;
7843;SDS011;3967;48.702;9.326;2023-05-16T08:16:23;21.17;;;16.03;;
7843;SDS011;3967;48.702;9.326;2023-05-16T08:18:50;20.63;;;16.27;;
7843;SDS011;3967;48.702;9.326;2023-05-16T08:21:17;19.07;;;15.30;;
7843;SDS011;3967;48.702;9.326;2023-05-16T08:23:44;18.67;;;15.80;;
7843;SDS011;3967;48.702;9.326;2023-05-16T08:26:11;15.73;;;13.80;;
7843;SDS011;3967;48.702;9.326;2023-05-16T08:28:38;14.97;;;13.30;;
7843;SDS011;3967;48.702;9.326;2023-05-16T08:31:05;14.90;;;13.03;;
7843;SDS011;3967;48.702;9.326;2023-05-16T08:33:34;15.33;;;13.13;;
7843;SDS011;3967;48.702;9.326;2023-05-16T08:36:01;14.37;;;12.77;;
7843;SDS011;3967;48.702;9.326;2023-05-16T08:38:28;14.67;;;12.97;;
7843;SDS011;3967;48.702;9.326;2023-05-16T08:40:55;16.13;;;14.00;;
7843;SDS011;3967;48.702;9.326;2023-05-16T08:43:32;14.33;;;12.83;;
7843;SDS011;3967;48.702;9.326;2023-05-16T08:46:01;13.03;;;11.73;;
7843;SDS011;3967;48.702;9.326;2023-05-16T08:48:28;11.83;;;10.73;;
7843;SDS011;3967;48.702;9.326;2023-05-16T08:50:59;12.67;;;11.37;;
7843;SDS011;3967;48.702;9.326;2023-05-16T08:53:30;13.10;;;11.63;;
7843;SDS011;3967;48.702;9.326;2023-05-16T08:56:02;14.33;;;12.47;;
7843;SDS011;3967;48.702;9.326;2023-05-16T08:58:30;14.23;;;12.27;;
7843;SDS011;3967;48.702;9.326;2023-05-16T09:00:57;14.03;;;12.47;;
7843;SDS011;3967;48.702;9.326;2023-05-16T09:03:24;14.07;;;12.63;;
7843;SDS011;3967;48.702;9.326;2023-05-16T09:05:54;14.20;;;12.80;;
7843;SDS011;3967;48.702;9.326;2023-05-16T09:08:21;14.33;;;12.00;;
7843;SDS011;3967;48.702;9.326;2023-05-16T09:10:47;13.63;;;12.23;;
7843;SDS011;3967;48.702;9.326;2023-05-16T09:13:14;13.50;;;12.00;;
7843;SDS011;3967;48.702;9.326;2023-05-16T09:15:41;13.07;;;11.67;;
7843;SDS011;3967;48.702;9.326;2023-05-16T09:18:11;15.27;;;13.10;;
7843;SDS011;3967;48.702;9.326;2023-05-16T09:20:42;15.23;;;12.47;;
7843;SDS011;3967;48.702;9.326;2023-05-16T09:23:12;16.07;;;12.67;;
7843;SDS011;3967;48.702;9.326;2023-05-16T09:25:39;16.13;;;13.07;;
7843;SDS011;3967;48.702;9.326;2023-05-16T09:28:09;15.20;;;12.73;;
7843;SDS011;3967;48.702;9.326;2023-05-16T09:30:37;14.67;;;13.07;;
7843;SDS011;3967;48.702;9.326;2023-05-16T09:33:05;16.87;;;13.73;;
7843;SDS011;3967;48.702;9.326;2023-05-16T09:35:33;15.83;;;13.80;;
7843;SDS011;3967;48.702;9.326;2023-05-16T09:38:14;14.40;;;12.47;;
7843;SDS011;3967;48.702;9.326;2023-05-16T09:40:43;17.00;;;13.10;;
7843;SDS011;3967;48.702;9.326;2023-05-16T09:43:11;15.03;;;12.87;;
7843;SDS011;3967;48.702;9.326;2023-05-16T09:45:44;17.60;;;14.07;;
7843;SDS011;3967;48.702;9.326;2023-05-16T09:48:12;17.13;;;13.97;;
7843;SDS011;3967;48.702;9.326;2023-05-16T09:50:40;18.50;;;13.53;;
7843;SDS011;3967;48.702;9.326;2023-05-16T09:53:27;17.13;;;13.23;;
7843;SDS011;3967;48.702;9.326;2023-05-16T09:56:09;17.33;;;13.67;;
7843;SDS011;3967;48.702;9.326;2023-05-16T09:58:38;14.27;;;12.30;;
7843;SDS011;3967;48.702;9.326;2023-05-16T10:01:08;19.83;;;15.43;;
7843;SDS011;3967;48.702;9.326;2023-05-16T10:03:36;16.13;;;14.27;;
7843;SDS011;3967;48.702;9.326;2023-05-16T10:06:05;19.37;;;14.50;;
7843;SDS011;3967;48.702;9.326;2023-05-16T10:08:34;17.33;;;13.97;;
7843;SDS011;3967;48.702;9.326;2023-05-16T10:11:05;19.63;;;15.60;;
7843;SDS011;3967;48.702;9.326;2023-05-16T10:13:33;19.33;;;16.33;;
7843;SDS011;3967;48.702;9.326;2023-05-16T10:16:04;16.83;;;14.70;;
7843;SDS011;3967;48.702;9.326;2023-05-16T10:18:34;20.10;;;15.70;;
7843;SDS011;3967;48.702;9.326;2023-05-16T10:21:10;19.67;;;16.10;;
7843;SDS011;3967;48.702;9.326;2023-05-16T10:23:40;20.73;;;15.80;;
7843;SDS011;3967;48.702;9.326;2023-05-16T10:26:08;18.53;;;16.10;;
7843;SDS011;3967;48.702;9.326;2023-05-16T10:28:39;20.80;;;16.37;;
7843;SDS011;3967;48.702;9.326;2023-05-16T10:31:07;22.70;;;16.70;;
7843;SDS011;3967;48.702;9.326;2023-05-16T10:33:37;20.70;;;16.03;;
7843;SDS011;3967;48.702;9.326;2023-05-16T10:36:05;20.60;;;15.60;;
7843;SDS011;3967;48.702;9.326;2023-05-16T10:38:35;21.63;;;16.67;;
7843;SDS011;3967;48.702;9.326;2023-05-16T10:41:05;20.60;;;17.07;;
7843;SDS011;3967;48.702;9.326;2023-05-16T10:43:33;22.37;;;17.07;;
7843;SDS011;3967;48.702;9.326;2023-05-16T10:46:04;18.77;;;14.83;;
7843;SDS011;3967;48.702;9.326;2023-05-16T10:48:35;22.30;;;17.67;;
7843;SDS011;3967;48.702;9.326;2023-05-16T10:53:52;22.13;;;16.83;;
7843;SDS011;3967;48.702;9.326;2023-05-16T10:56:23;21.40;;;16.90;;
7843;SDS011;3967;48.702;9.326;2023-05-16T10:58:52;20.77;;;16.27;;
7843;SDS011;3967;48.702;9.326;2023-05-16T11:01:20;23.20;;;16.53;;
7843;SDS011;3967;48.702;9.326;2023-05-16T11:04:09;19.70;;;15.57;;
7843;SDS011;3967;48.702;9.326;2023-05-16T11:09:06;21.07;;;16.40;;
7843;SDS011;3967;48.702;9.326;2023-05-16T11:17:11;24.17;;;16.57;;
7843;SDS011;3967;48.702;9.326;2023-05-16T11:19:49;19.77;;;15.93;;
7843;SDS011;3967;48.702;9.326;2023-05-16T11:27:24;21.03;;;16.33;;
7843;SDS011;3967;48.702;9.326;2023-05-16T11:29:52;18.60;;;14.37;;
7843;SDS011;3967;48.702;9.326;2023-05-16T11:32:21;20.73;;;15.07;;
7843;SDS011;3967;48.702;9.326;2023-05-16T11:34:51;19.07;;;14.90;;
7843;SDS011;3967;48.702;9.326;2023-05-16T11:37:19;18.03;;;14.97;;
7843;SDS011;3967;48.702;9.326;2023-05-16T11:39:46;19.03;;;15.03;;
7843;SDS011;3967;48.702;9.326;2023-05-16T11:42:14;18.37;;;15.13;;
7843;SDS011;3967;48.702;9.326;2023-05-16T11:44:41;18.40;;;14.63;;
7843;SDS011;3967;48.702;9.326;2023-05-16T11:47:08;19.07;;;14.60;;
7843;SDS011;3967;48.702;9.326;2023-05-16T11:49:34;18.80;;;14.47;;
7843;SDS011;3967;48.702;9.326;2023-05-16T11:52:02;19.90;;;15.30;;
7843;SDS011;3967;48.702;9.326;2023-05-16T11:54:30;19.40;;;14.87;;
7843;SDS011;3967;48.702;9.326;2023-05-16T11:56:57;20.43;;;13.00;;
7843;SDS011;3967;48.702;9.326;2023-05-16T11:59:24;15.33;;;11.70;;
7843;SDS011;3967;48.702;9.326;2023-05-16T12:01:52;15.57;;;10.93;;
7843;SDS011;3967;48.702;9.326;2023-05-16T12:04:18;13.57;;;11.17;;
7843;SDS011;3967;48.702;9.326;2023-05-16T12:06:56;13.90;;;10.50;;
7843;SDS011;3967;48.702;9.326;2023-05-16T12:09:25;13.10;;;10.03;;
7843;SDS011;3967;48.702;9.326;2023-05-16T12:11:52;11.77;;;10.23;;
7843;SDS011;3967;48.702;9.326;2023-05-16T12:14:19;13.60;;;10.43;;
7843;SDS011;3967;48.702;9.326;2023-05-16T12:16:47;13.17;;;10.87;;
7843;SDS011;3967;48.702;9.326;2023-05-16T12:19:14;11.37;;;10.13;;
7843;SDS011;3967;48.702;9.326;2023-05-16T12:21:42;12.70;;;10.30;;
7843;SDS011;3967;48.702;9.326;2023-05-16T12:24:09;10.57;;;9.47;;
7843;SDS011;3967;48.702;9.326;2023-05-16T12:26:38;11.87;;;9.30;;
7843;SDS011;3967;48.702;9.326;2023-05-16T12:29:07;13.83;;;10.37;;
7843;SDS011;3967;48.702;9.326;2023-05-16T12:31:37;10.57;;;9.33;;
7843;SDS011;3967;48.702;9.326;2023-05-16T12:34:15;9.70;;;8.63;;
7843;SDS011;3967;48.702;9.326;2023-05-16T12:36:49;12.07;;;8.30;;
7843;SDS011;3967;48.702;9.326;2023-05-16T12:39:18;9.60;;;8.17;;
7843;SDS011;3967;48.702;9.326;2023-05-16T12:41:45;9.20;;;7.97;;
7843;SDS011;3967;48.702;9.326;2023-05-16T12:44:15;8.63;;;7.63;;
7843;SDS011;3967;48.702;9.326;2023-05-16T12:46:53;8.07;;;7.20;;
7843;SDS011;3967;48.702;9.326;2023-05-16T12:49:24;9.10;;;7.47;;
7843;SDS011;3967;48.702;9.326;2023-05-16T12:51:51;10.70;;;7.67;;
7843;SDS011;3967;48.702;9.326;2023-05-16T12:54:20;9.60;;;7.07;;
7843;SDS011;3967;48.702;9.326;2023-05-16T12:56:50;8.20;;;7.03;;
7843;SDS011;3967;48.702;9.326;2023-05-16T12:59:17;7.23;;;6.37;;
7843;SDS011;3967;48.702;9.326;2023-05-16T13:01:45;9.27;;;7.23;;
7843;SDS011;3967;48.702;9.326;2023-05-16T13:04:12;6.83;;;6.13;;
7843;SDS011;3967;48.702;9.326;2023-05-16T13:06:45;6.60;;;5.90;;
7843;SDS011;3967;48.702;9.326;2023-05-16T13:09:24;6.30;;;5.70;;
7843;SDS011;3967;48.702;9.326;2023-05-16T13:11:56;5.83;;;5.33;;
7843;SDS011;3967;48.702;9.326;2023-05-16T13:14:23;6.03;;;5.03;;
7843;SDS011;3967;48.702;9.326;2023-05-16T13:16:50;5.67;;;5.17;;
7843;SDS011;3967;48.702;9.326;2023-05-16T13:19:16;5.37;;;4.87;;
7843;SDS011;3967;48.702;9.326;2023-05-16T13:21:43;5.60;;;5.10;;
7843;SDS011;3967;48.702;9.326;2023-05-16T13:24:10;6.13;;;4.60;;
7843;SDS011;3967;48.702;9.326;2023-05-16T13:26:37;5.53;;;4.93;;
7843;SDS011;3967;48.702;9.326;2023-05-16T13:29:04;5.43;;;4.93;;
7843;SDS011;3967;48.702;9.326;2023-05-16T13:31:31;6.13;;;4.77;;
7843;SDS011;3967;48.702;9.326;2023-05-16T13:33:58;6.57;;;4.67;;
7843;SDS011;3967;48.702;9.326;2023-05-16T13:36:25;4.67;;;4.20;;
7843;SDS011;3967;48.702;9.326;2023-05-16T13:38:52;4.40;;;3.83;;
7843;SDS011;3967;48.702;9.326;2023-05-16T13:41:19;4.43;;;4.03;;
7843;SDS011;3967;48.702;9.326;2023-05-16T13:43:47;4.23;;;3.87;;
7843;SDS011;3967;48.702;9.326;2023-05-16T13:46:14;4.13;;;3.80;;
7843;SDS011;3967;48.702;9.326;2023-05-16T13:48:41;4.73;;;4.00;;
7843;SDS011;3967;48.702;9.326;2023-05-16T13:51:07;4.90;;;3.60;;
7843;SDS011;3967;48.702;9.326;2023-05-16T13:53:36;4.00;;;3.60;;
7843;SDS011;3967;48.702;9.326;2023-05-16T13:56:04;6.20;;;3.73;;
7843;SDS011;3967;48.702;9.326;2023-05-16T13:58:31;3.40;;;3.10;;
7843;SDS011;3967;48.702;9.326;2023-05-16T14:00:58;3.30;;;3.10;;
7843;SDS011;3967;48.702;9.326;2023-05-16T14:03:25;5.20;;;3.33;;
7843;SDS011;3967;48.702;9.326;2023-05-16T14:05:52;3.30;;;3.10;;
7843;SDS011;3967;48.702;9.326;2023-05-16T14:08:19;3.73;;;3.40;;
7843;SDS011;3967;48.702;9.326;2023-05-16T14:10:46;3.47;;;3.17;;
7843;SDS011;3967;48.702;9.326;2023-05-16T14:13:15;3.10;;;2.90;;
7843;SDS011;3967;48.702;9.326;2023-05-16T14:15:42;4.27;;;3.00;;
7843;SDS011;3967;48.702;9.326;2023-05-16T14:18:09;2.80;;;2.60;;
7843;SDS011;3967;48.702;9.326;2023-05-16T14:20:36;2.90;;;2.70;;
7843;SDS011;3967;48.702;9.326;2023-05-16T14:23:02;2.83;;;2.57;;
7843;SDS011;3967;48.702;9.326;2023-05-16T14:25:29;2.50;;;2.40;;
7843;SDS011;3967;48.702;9.326;2023-05-16T14:27:56;3.50;;;2.80;;
7843;SDS011;3967;48.702;9.326;2023-05-16T14:30:23;3.13;;;2.93;;
7843;SDS011;3967;48.702;9.326;2023-05-16T14:32:51;3.13;;;2.73;;
7843;SDS011;3967;48.702;9.326;2023-05-16T14:35:18;2.57;;;2.37;;
7843;SDS011;3967;48.702;9.326;2023-05-16T14:37:47;2.47;;;2.27;;
7843;SDS011;3967;48.702;9.326;2023-05-16T14:40:14;3.60;;;2.83;;
7843;SDS011;3967;48.702;9.326;2023-05-16T14:42:41;2.90;;;2.70;;
7843;SDS011;3967;48.702;9.326;2023-05-16T14:45:08;3.90;;;3.60;;
7843;SDS011;3967;48.702;9.326;2023-05-16T14:47:35;3.03;;;2.70;;
7843;SDS011;3967;48.702;9.326;2023-05-16T14:50:03;3.13;;;2.70;;
7843;SDS011;3967;48.702;9.326;2023-05-16T14:52:30;2.87;;;2.67;;
7843;SDS011;3967;48.702;9.326;2023-05-16T14:54:56;3.13;;;2.40;;
7843;SDS011;3967;48.702;9.326;2023-05-16T14:57:23;2.40;;;2.27;;
7843;SDS011;3967;48.702;9.326;2023-05-16T14:59:50;2.57;;;2.33;;
7843;SDS011;3967;48.702;9.326;2023-05-16T15:02:17;2.50;;;2.30;;
7843;SDS011;3967;48.702;9.326;2023-05-16T15:04:44;2.40;;;2.20;;
7843;SDS011;3967;48.702;9.326;2023-05-16T15:07:11;4.83;;;2.37;;
7843;SDS011;3967;48.702;9.326;2023-05-16T15:09:38;3.10;;;2.50;;
7843;SDS011;3967;48.702;9.326;2023-05-16T15:12:05;2.10;;;1.90;;
7843;SDS011;3967;48.702;9.326;2023-05-16T15:14:32;2.47;;;2.00;;
7843;SDS011;3967;48.702;9.326;2023-05-16T15:16:59;2.73;;;2.10;;
7843;SDS011;3967;48.702;9.326;2023-05-16T15:19:26;3.30;;;2.00;;
7843;SDS011;3967;48.702;9.326;2023-05-16T15:21:53;2.40;;;2.20;;
7843;SDS011;3967;48.702;9.326;2023-05-16T15:24:20;2.40;;;2.20;;
7843;SDS011;3967;48.702;9.326;2023-05-16T15:26:47;2.20;;;2.00;;
7843;SDS011;3967;48.702;9.326;2023-05-16T15:29:15;1.70;;;1.60;;